Time;durP1;ratioP1;P1;durP2;ratioP2;P2;SDS_P1;SDS_P2;PMS_P1;PMS_P2;Temp;Humidity;BMP_temperature;BMP_pressure;BME280_temperature;BME280_humidity;BME280_pressure;Samples;Min_cycle;Max_cycle;Signal;HPM_P1;HPM_P2
2023/09/29 00:01:38;;;;;;;2.10;1.60;;;21.40;66.90;;;;;;6270613;28;20029;-71
2023/09/29 00:04:39;;;;;;;1.73;1.58;;;21.40;66.90;;;;;;6270885;28;20025;-71
2023/09/29 00:07:40;;;;;;;1.90;1.67;;;21.40;66.90;;;;;;6272028;28;20028;-71
2023/09/29 00:10:41;;;;;;;2.97;1.88;;;21.40;66.90;;;;;;6255189;28;20021;-71
2023/09/29 00:13:43;;;;;;;2.13;1.67;;;21.40;67.00;;;;;;6271641;28;20447;-72
2023/09/29 00:16:45;;;;;;;3.53;1.50;;;21.40;66.90;;;;;;6271467;28;20028;-71
2023/09/29 00:19:46;;;;;;;2.13;1.83;;;21.40;66.90;;;;;;6271596;28;20032;-70
2023/09/29 00:22:46;;;;;;;1.73;1.40;;;21.40;66.90;;;;;;6270230;28;20052;-71
2023/09/29 00:25:47;;;;;;;2.33;1.85;;;21.40;66.90;;;;;;6270116;28;20037;-71
2023/09/29 00:28:48;;;;;;;2.47;1.83;;;21.40;66.90;;;;;;6264386;28;20691;-71
2023/09/29 00:31:48;;;;;;;2.22;1.80;;;21.40;67.00;;;;;;6246239;28;20057;-71
2023/09/29 00:34:49;;;;;;;2.60;1.88;;;21.40;66.90;;;;;;6247992;28;20075;-71
2023/09/29 00:37:51;;;;;;;2.45;1.70;;;21.40;66.90;;;;;;6269467;28;20550;-71
2023/09/29 00:40:53;;;;;;;1.98;1.70;;;21.40;67.00;;;;;;6271365;28;20110;-71
2023/09/29 00:43:53;;;;;;;2.40;1.60;;;21.40;66.90;;;;;;6270855;28;20021;-72
2023/09/29 00:46:54;;;;;;;2.30;1.90;;;21.40;66.90;;;;;;6255069;28;20036;-71
2023/09/29 00:49:55;;;;;;;1.80;1.65;;;21.40;67.00;;;;;;6269562;28;20447;-71
2023/09/29 00:52:58;;;;;;;1.92;1.73;;;21.40;67.00;;;;;;6271062;28;20044;-71
2023/09/29 00:56:00;;;;;;;2.28;1.92;;;21.40;67.00;;;;;;6270405;28;20541;-71
2023/09/29 00:59:05;;;;;;;1.80;1.50;;;21.40;67.00;;;;;;6270647;28;20021;-71
2023/09/29 01:02:09;;;;;;;1.98;1.77;;;21.40;67.00;;;;;;6269879;28;20148;-71
2023/09/29 01:05:13;;;;;;;1.55;1.45;;;21.40;67.00;;;;;;6270585;28;20067;-72
2023/09/29 01:08:20;;;;;;;2.60;1.85;;;21.40;67.00;;;;;;6270547;28;20092;-71
2023/09/29 01:11:21;;;;;;;2.42;2.05;;;21.40;67.00;;;;;;6270197;28;20575;-71
2023/09/29 01:14:22;;;;;;;2.13;1.77;;;21.40;67.00;;;;;;6270229;28;20027;-71
2023/09/29 01:17:25;;;;;;;2.05;1.80;;;21.40;67.00;;;;;;6268815;28;20064;-71
2023/09/29 01:20:34;;;;;;;2.35;1.80;;;21.40;67.00;;;;;;6270065;28;20017;-71
2023/09/29 01:23:35;;;;;;;2.20;1.85;;;21.40;67.00;;;;;;6269159;28;20029;-71
2023/09/29 01:26:36;;;;;;;2.10;1.80;;;21.40;67.00;;;;;;6269327;28;20436;-71
2023/09/29 01:29:39;;;;;;;1.95;1.67;;;21.40;67.00;;;;;;6270164;28;20056;-71
2023/09/29 01:32:41;;;;;;;2.20;1.80;;;21.40;67.00;;;;;;6268732;28;20479;-71
2023/09/29 01:35:45;;;;;;;2.22;1.80;;;21.40;67.90;;;;;;6268507;28;20017;-71
2023/09/29 01:38:45;;;;;;;1.75;1.60;;;21.40;67.00;;;;;;6269862;28;20033;-70
2023/09/29 01:41:47;;;;;;;2.22;2.00;;;21.40;67.00;;;;;;6269785;28;20032;-71
2023/09/29 01:44:49;;;;;;;1.88;1.60;;;21.40;67.00;;;;;;6269880;28;20075;-70
2023/09/29 01:47:50;;;;;;;1.70;1.60;;;21.40;67.00;;;;;;6269776;28;20605;-71
2023/09/29 01:50:50;;;;;;;2.25;1.90;;;21.40;67.00;;;;;;6268406;28;20055;-71
2023/09/29 01:53:52;;;;;;;2.38;2.03;;;21.40;67.00;;;;;;6269447;28;20104;-71
2023/09/29 01:56:53;;;;;;;2.95;1.95;;;21.40;67.00;;;;;;6268144;28;20075;-71
2023/09/29 01:59:56;;;;;;;2.40;1.90;;;21.40;67.00;;;;;;6267819;28;20476;-72
2023/09/29 02:03:00;;;;;;;1.98;1.77;;;21.40;67.00;;;;;;6268210;28;20036;-71
2023/09/29 02:06:02;;;;;;;2.70;2.08;;;21.40;67.00;;;;;;6268057;28;20447;-71
2023/09/29 02:09:07;;;;;;;1.83;1.67;;;21.40;67.00;;;;;;6267772;28;20021;-71
2023/09/29 02:12:09;;;;;;;2.63;1.92;;;21.40;67.00;;;;;;6268175;28;20079;-70
2023/09/29 02:15:11;;;;;;;2.58;1.75;;;21.40;67.00;;;;;;6269087;28;20025;-71
2023/09/29 02:18:12;;;;;;;1.85;1.60;;;21.40;67.00;;;;;;6267936;28;20663;-71
2023/09/29 02:21:25;;;;;;;2.15;1.75;;;21.40;67.00;;;;;;6269207;28;20017;-72
2023/09/29 02:24:26;;;;;;;2.05;1.73;;;21.40;67.00;;;;;;6269364;28;20017;-70
2023/09/29 02:27:26;;;;;;;2.15;1.80;;;21.40;67.00;;;;;;6268948;28;20117;-71
2023/09/29 02:30:28;;;;;;;2.15;1.95;;;21.40;67.00;;;;;;6268924;28;20447;-71
2023/09/29 02:33:31;;;;;;;2.28;1.75;;;21.40;67.00;;;;;;6269127;28;20021;-71
2023/09/29 02:36:31;;;;;;;2.25;1.70;;;21.40;67.00;;;;;;6284116;28;20048;-71
2023/09/29 02:39:32;;;;;;;2.63;1.98;;;21.40;67.90;;;;;;6268751;28;20064;-71
2023/09/29 02:42:33;;;;;;;2.10;1.80;;;21.40;67.00;;;;;;6267596;28;20133;-72
2023/09/29 02:45:35;;;;;;;2.00;1.80;;;21.40;67.90;;;;;;6268805;28;20029;-71
2023/09/29 02:48:35;;;;;;;2.10;1.90;;;21.40;67.00;;;;;;6267357;28;20029;-71
2023/09/29 02:51:37;;;;;;;2.45;1.88;;;21.40;67.00;;;;;;6268553;28;20028;-71
2023/09/29 02:54:39;;;;;;;2.05;1.77;;;21.40;67.00;;;;;;6267506;28;20051;-71
2023/09/29 02:57:42;;;;;;;2.00;1.80;;;21.40;67.00;;;;;;6267379;28;20025;-71
2023/09/29 03:00:42;;;;;;;1.88;1.65;;;21.40;67.00;;;;;;6268764;28;20021;-72
2023/09/29 03:03:44;;;;;;;2.58;1.80;;;21.40;67.00;;;;;;6268820;28;20104;-71
2023/09/29 03:06:44;;;;;;;2.45;1.83;;;21.40;67.00;;;;;;6267120;28;20082;-70
2023/09/29 03:09:46;;;;;;;1.83;1.60;;;21.40;67.00;;;;;;6267282;28;20360;-72
2023/09/29 03:12:48;;;;;;;2.42;1.90;;;21.40;67.00;;;;;;6266935;28;20044;-71
2023/09/29 03:15:49;;;;;;;2.63;2.08;;;21.40;67.10;;;;;;6267404;28;20025;-71
2023/09/29 03:18:50;;;;;;;2.53;2.08;;;21.40;67.10;;;;;;6268230;28;20025;-71
2023/09/29 03:21:51;;;;;;;2.00;1.80;;;21.40;67.10;;;;;;6268607;28;20070;-71
2023/09/29 03:24:51;;;;;;;3.17;2.10;;;21.40;67.10;;;;;;6268116;28;20021;-71
2023/09/29 03:27:52;;;;;;;2.53;2.17;;;21.40;67.10;;;;;;6272454;28;20028;-70
2023/09/29 03:30:53;;;;;;;2.20;1.95;;;21.40;67.10;;;;;;6272797;28;20036;-71
2023/09/29 03:33:54;;;;;;;2.33;1.92;;;21.40;67.20;;;;;;6271459;28;20048;-72
2023/09/29 03:36:54;;;;;;;2.20;1.70;;;21.40;67.10;;;;;;6272748;28;20033;-71
2023/09/29 03:39:56;;;;;;;2.78;1.90;;;21.40;67.10;;;;;;6272238;28;20411;-71
2023/09/29 03:42:57;;;;;;;1.92;1.73;;;21.40;67.10;;;;;;6271267;28;20045;-70
2023/09/29 03:45:59;;;;;;;2.17;1.85;;;21.40;67.10;;;;;;6271716;28;20128;-70
2023/09/29 03:49:00;;;;;;;2.80;1.80;;;21.40;67.10;;;;;;6272248;28;20380;-71
2023/09/29 03:52:00;;;;;;;2.10;1.73;;;21.40;67.10;;;;;;6272318;28;20372;-71
2023/09/29 03:55:02;;;;;;;2.63;1.90;;;21.40;67.20;;;;;;6272320;28;20018;-71
2023/09/29 03:58:04;;;;;;;2.13;1.85;;;21.40;67.10;;;;;;6272182;28;20019;-71
2023/09/29 04:01:04;;;;;;;2.00;1.73;;;21.40;67.10;;;;;;6271038;28;20029;-71
2023/09/29 04:04:05;;;;;;;2.10;1.90;;;21.40;67.10;;;;;;6272194;28;20414;-71
2023/09/29 04:07:07;;;;;;;2.08;1.80;;;21.40;67.10;;;;;;6272355;28;20021;-70
2023/09/29 04:10:09;;;;;;;2.28;1.90;;;21.40;67.20;;;;;;6271925;28;20379;-71
2023/09/29 04:13:10;;;;;;;2.08;1.83;;;21.40;67.20;;;;;;6271692;28;20029;-71
2023/09/29 04:16:10;;;;;;;2.42;1.90;;;21.40;67.10;;;;;;6271871;28;20078;-72
2023/09/29 04:19:12;;;;;;;2.65;1.92;;;21.40;67.10;;;;;;6271888;28;20511;-72
2023/09/29 04:22:14;;;;;;;2.35;1.95;;;21.40;67.20;;;;;;6271782;28;20021;-71
2023/09/29 04:25:16;;;;;;;2.25;1.83;;;21.40;67.10;;;;;;6270051;28;20048;-71
2023/09/29 04:28:16;;;;;;;2.08;1.73;;;21.40;67.20;;;;;;6270135;28;20495;-71
2023/09/29 04:31:18;;;;;;;2.80;1.98;;;21.40;68.00;;;;;;6270586;28;20087;-71
2023/09/29 04:34:19;;;;;;;2.17;1.77;;;21.40;67.20;;;;;;6271422;28;20013;-71
2023/09/29 04:37:19;;;;;;;2.72;2.10;;;21.40;67.20;;;;;;6269206;28;20025;-72
2023/09/29 04:40:20;;;;;;;3.92;1.95;;;21.40;67.20;;;;;;6271519;28;20468;-71
2023/09/29 04:43:21;;;;;;;2.30;1.90;;;21.40;67.20;;;;;;6271570;28;20052;-71
2023/09/29 04:46:21;;;;;;;2.20;1.80;;;21.40;67.20;;;;;;6271320;28;20021;-70
2023/09/29 04:49:22;;;;;;;2.55;1.90;;;21.40;67.20;;;;;;6271324;28;20040;-71
2023/09/29 04:52:23;;;;;;;2.83;2.15;;;21.40;67.20;;;;;;6261261;28;20033;-71
2023/09/29 04:55:24;;;;;;;2.60;2.05;;;21.40;67.20;;;;;;6246191;28;20398;-71
2023/09/29 04:58:25;;;;;;;2.38;1.98;;;21.40;67.20;;;;;;6265286;28;20048;-72
2023/09/29 05:01:27;;;;;;;1.95;1.70;;;21.40;67.20;;;;;;6270961;28;20048;-71
2023/09/29 05:04:27;;;;;;;2.42;1.80;;;21.40;67.20;;;;;;6270807;28;20347;-71
2023/09/29 05:07:28;;;;;;;2.10;1.90;;;21.40;67.20;;;;;;6270769;28;20017;-70
2023/09/29 05:10:28;;;;;;;1.73;1.63;;;21.40;67.20;;;;;;6270466;28;20552;-71
2023/09/29 05:13:32;;;;;;;2.63;1.90;;;21.40;67.20;;;;;;6269029;28;20065;-71
2023/09/29 05:16:32;;;;;;;2.70;1.90;;;21.40;67.20;;;;;;6270437;28;20480;-71
2023/09/29 05:19:33;;;;;;;2.20;1.77;;;21.40;67.20;;;;;;6269137;28;20032;-71
2023/09/29 05:22:34;;;;;;;2.92;1.55;;;21.40;67.10;;;;;;6270178;28;20035;-71
2023/09/29 05:25:36;;;;;;;2.08;1.73;;;21.40;67.00;;;;;;6270259;28;20048;-71
2023/09/29 05:28:39;;;;;;;2.38;1.90;;;21.40;67.00;;;;;;6269987;28;20044;-72
2023/09/29 05:31:42;;;;;;;2.20;1.83;;;21.40;67.00;;;;;;6268756;28;20472;-71
2023/09/29 05:34:43;;;;;;;3.55;2.25;;;21.40;67.00;;;;;;6263752;28;20028;-68
2023/09/29 05:37:43;;;;;;;2.90;2.03;;;21.40;67.00;;;;;;6269014;28;20041;-71
2023/09/29 05:40:47;;;;;;;3.20;2.53;;;21.40;67.00;;;;;;6269432;28;20384;-71
2023/09/29 05:43:47;;;;;;;8.80;2.70;;;21.40;66.10;;;;;;6261581;28;20108;-69
2023/09/29 05:46:48;;;;;;;4.45;3.75;;;21.40;66.60;;;;;;6258970;28;20372;-69
2023/09/29 05:49:49;;;;;;;9.57;3.38;;;21.40;66.00;;;;;;6275470;28;20102;-69
2023/09/29 05:52:50;;;;;;;7.10;2.97;;;21.40;65.90;;;;;;6262848;28;20029;-72
2023/09/29 05:55:51;;;;;;;9.48;4.18;;;21.40;66.40;;;;;;6267473;28;20476;-71
2023/09/29 05:58:51;;;;;;;3.53;2.40;;;21.40;66.20;;;;;;6260579;28;20021;-68
2023/09/29 06:01:53;;;;;;;6.18;3.28;;;21.40;66.30;;;;;;6253387;28;20643;-70
2023/09/29 06:04:54;;;;;;;4.93;2.85;;;21.40;66.20;;;;;;6262656;28;20025;-71
2023/09/29 06:07:55;;;;;;;9.82;3.33;;;21.40;66.50;;;;;;6254462;28;20488;-71
2023/09/29 06:10:57;;;;;;;5.38;3.75;;;21.40;65.30;;;;;;6262795;28;20021;-71
2023/09/29 06:13:57;;;;;;;5.63;3.22;;;21.40;66.00;;;;;;6254181;28;20094;-71
2023/09/29 06:16:59;;;;;;;4.97;3.72;;;21.40;66.10;;;;;;6285796;28;20029;-71
2023/09/29 06:19:59;;;;;;;4.80;3.90;;;21.40;66.00;;;;;;6269699;28;20124;-71
2023/09/29 06:23:00;;;;;;;6.53;4.00;;;21.40;66.10;;;;;;6262465;28;20033;-72
2023/09/29 06:26:01;;;;;;;5.22;3.80;;;21.40;66.20;;;;;;6270088;28;20044;-72
2023/09/29 06:29:04;;;;;;;6.13;3.78;;;21.40;66.20;;;;;;6269862;28;20447;-71
2023/09/29 06:32:11;;;;;;;6.43;3.88;;;21.40;66.20;;;;;;6270162;28;20060;-71
2023/09/29 06:35:14;;;;;;;7.72;3.75;;;21.40;66.30;;;;;;6258755;28;20025;-71
2023/09/29 06:38:15;;;;;;;7.65;3.80;;;21.40;66.30;;;;;;6247555;28;20489;-70
2023/09/29 06:41:16;;;;;;;8.55;4.30;;;21.40;66.40;;;;;;6260635;28;20029;-70
2023/09/29 06:44:17;;;;;;;8.85;3.78;;;21.40;66.40;;;;;;6261346;28;20502;-71
2023/09/29 06:47:18;;;;;;;7.18;3.85;;;21.40;66.40;;;;;;6262156;28;20056;-71
2023/09/29 06:50:18;;;;;;;7.10;3.60;;;21.40;66.50;;;;;;6268413;28;20336;-71
2023/09/29 06:53:19;;;;;;;4.40;3.50;;;21.40;66.40;;;;;;6249654;28;20022;-71
2023/09/29 06:56:20;;;;;;;4.43;3.20;;;21.40;66.40;;;;;;6248386;28;20028;-71
2023/09/29 06:59:21;;;;;;;6.25;3.70;;;21.40;66.50;;;;;;6261616;28;20068;-70
2023/09/29 07:02:21;;;;;;;5.07;3.42;;;21.40;66.50;;;;;;6260526;28;20061;-71
2023/09/29 07:05:22;;;;;;;3.92;3.00;;;21.40;66.50;;;;;;6250442;28;20029;-71
2023/09/29 07:08:23;;;;;;;4.38;3.40;;;21.40;66.50;;;;;;6263607;28;20555;-72
2023/09/29 07:11:24;;;;;;;5.18;3.10;;;21.40;66.60;;;;;;6270679;28;20026;-71
2023/09/29 07:14:24;;;;;;;3.78;2.80;;;21.40;66.60;;;;;;6269829;28;20025;-70
2023/09/29 07:17:25;;;;;;;3.40;2.90;;;21.40;66.60;;;;;;6254378;28;20044;-70
2023/09/29 07:20:26;;;;;;;7.40;3.17;;;21.40;66.60;;;;;;6260278;28;20021;-71
2023/09/29 07:23:30;;;;;;;4.70;3.30;;;21.40;66.60;;;;;;6266266;28;20033;-70
2023/09/29 07:26:30;;;;;;;3.53;2.97;;;21.40;66.60;;;;;;6257080;28;20025;-70
2023/09/29 07:29:31;;;;;;;5.78;3.33;;;21.40;66.60;;;;;;6270780;28;20021;-70
2023/09/29 07:32:32;;;;;;;3.67;2.92;;;21.40;66.60;;;;;;6260364;28;20025;-70
2023/09/29 07:35:32;;;;;;;4.65;3.10;;;21.40;66.60;;;;;;6259607;28;20459;-70
2023/09/29 07:38:33;;;;;;;3.60;3.00;;;21.40;66.60;;;;;;6273045;28;20064;-70
2023/09/29 07:41:34;;;;;;;3.53;2.83;;;21.40;66.70;;;;;;6264400;28;20117;-70
2023/09/29 07:44:35;;;;;;;4.80;2.97;;;21.40;66.70;;;;;;6254105;28;20112;-70
2023/09/29 07:47:41;;;;;;;3.38;2.55;;;21.40;66.70;;;;;;6264094;28;20535;-71
2023/09/29 07:50:42;;;;;;;4.35;3.25;;;21.40;66.70;;;;;;6257111;28;20052;-71
2023/09/29 07:53:44;;;;;;;3.88;3.17;;;21.40;66.70;;;;;;6271823;28;20025;-70
2023/09/29 07:56:50;;;;;;;3.60;2.83;;;21.40;66.80;;;;;;6264267;28;20055;-70
2023/09/29 07:59:52;;;;;;;3.47;2.78;;;21.40;66.80;;;;;;6263731;28;20017;-70
2023/09/29 08:02:55;;;;;;;3.35;2.97;;;21.40;67.60;;;;;;6263786;28;20090;-70
2023/09/29 08:05:56;;;;;;;3.30;2.55;;;21.40;66.80;;;;;;6261885;28;20314;-71
2023/09/29 08:08:57;;;;;;;4.70;3.05;;;21.40;66.80;;;;;;6264670;28;20361;-71
2023/09/29 08:11:57;;;;;;;3.40;2.80;;;21.40;66.80;;;;;;6256556;28;20045;-71
2023/09/29 08:14:59;;;;;;;4.22;2.70;;;21.40;66.80;;;;;;6272469;28;20025;-71
2023/09/29 08:18:00;;;;;;;4.38;2.65;;;21.40;66.80;;;;;;6272135;28;20021;-71
2023/09/29 08:21:00;;;;;;;6.88;2.85;;;21.40;66.80;;;;;;6264875;28;20024;-71
2023/09/29 08:24:06;;;;;;;4.43;2.60;;;21.40;66.80;;;;;;6261900;28;20025;-71
2023/09/29 08:27:07;;;;;;;2.65;2.20;;;21.40;66.80;;;;;;6270795;28;20032;-71
2023/09/29 08:30:08;;;;;;;3.97;2.90;;;21.40;66.80;;;;;;6255843;28;20029;-71
2023/09/29 08:33:09;;;;;;;2.83;2.30;;;21.40;66.80;;;;;;6255634;28;20114;-70
2023/09/29 08:36:09;;;;;;;4.50;2.50;;;21.40;66.80;;;;;;6261198;28;20029;-71
2023/09/29 08:39:10;;;;;;;3.38;2.78;;;21.40;66.80;;;;;;6260523;28;20050;-70
2023/09/29 08:42:33;;;;;;;3.33;2.63;;;21.40;66.80;;;;;;6270799;28;20128;-71
2023/09/29 08:45:35;;;;;;;3.50;2.75;;;21.40;67.70;;;;;;6255266;28;20028;-70
2023/09/29 08:48:37;;;;;;;3.63;2.67;;;21.40;66.90;;;;;;6271782;28;20028;-71
2023/09/29 08:51:39;;;;;;;4.47;2.42;;;21.40;66.90;;;;;;6271639;28;20032;-70
2023/09/29 08:54:39;;;;;;;3.10;2.53;;;21.40;66.80;;;;;;6263974;28;20021;-71
2023/09/29 08:57:43;;;;;;;3.30;2.75;;;21.40;66.90;;;;;;6257313;28;20503;-72
2023/09/29 09:00:45;;;;;;;3.60;2.80;;;21.40;66.90;;;;;;6271182;28;20120;-71
2023/09/29 09:03:46;;;;;;;3.53;2.50;;;21.40;66.90;;;;;;6256799;28;20550;-71
2023/09/29 09:06:47;;;;;;;3.35;2.42;;;21.40;66.90;;;;;;6253853;28;20076;-71
2023/09/29 09:09:55;;;;;;;4.55;2.47;;;21.40;66.90;;;;;;6259908;28;20029;-71
2023/09/29 09:12:55;;;;;;;2.45;2.25;;;21.40;66.90;;;;;;6263222;28;20025;-71
2023/09/29 09:16:00;;;;;;;2.80;2.30;;;21.40;67.30;;;;;;6270829;28;20083;-71
2023/09/29 09:19:14;;;;;;;3.38;2.55;;;21.40;66.90;;;;;;6262165;28;20094;-72
2023/09/29 09:22:16;;;;;;;3.05;2.30;;;21.40;66.90;;;;;;6254766;28;20033;-71
2023/09/29 09:25:17;;;;;;;2.60;2.33;;;21.40;66.80;;;;;;6266467;28;20025;-71
2023/09/29 09:28:19;;;;;;;2.80;2.00;;;21.40;66.90;;;;;;6253370;28;20059;-71
2023/09/29 09:31:20;;;;;;;2.25;1.90;;;21.40;67.00;;;;;;6269489;28;20029;-71
2023/09/29 09:34:31;;;;;;;2.35;2.10;;;21.40;66.90;;;;;;6261270;28;20025;-70
2023/09/29 09:37:32;;;;;;;3.35;2.55;;;21.40;66.90;;;;;;6270729;28;20103;-72
2023/09/29 09:40:32;;;;;;;2.72;2.30;;;21.40;67.00;;;;;;6264445;28;20021;-71
2023/09/29 09:43:35;;;;;;;3.17;2.40;;;21.40;66.90;;;;;;6253221;28;20511;-71
2023/09/29 09:46:39;;;;;;;2.60;2.40;;;21.40;66.90;;;;;;6253205;28;20056;-71
2023/09/29 09:49:48;;;;;;;2.60;2.17;;;21.40;66.90;;;;;;6266406;28;20029;-71
2023/09/29 09:52:53;;;;;;;2.17;1.92;;;21.40;66.90;;;;;;6263179;28;20428;-72
2023/09/29 09:56:04;;;;;;;3.20;2.22;;;21.40;66.90;;;;;;6270424;28;20017;-70
2023/09/29 09:59:07;;;;;;;3.45;2.30;;;21.40;66.90;;;;;;6261412;28;20033;-71
2023/09/29 10:02:11;;;;;;;3.30;2.08;;;21.40;67.00;;;;;;6253956;28;20024;-71
2023/09/29 10:05:22;;;;;;;2.70;1.88;;;21.40;67.00;;;;;;6265134;28;20075;-71
2023/09/29 10:08:30;;;;;;;2.47;1.90;;;21.40;66.90;;;;;;6269775;28;20049;-71
2023/09/29 10:11:31;;;;;;;2.75;2.20;;;21.40;66.90;;;;;;6260597;28;20025;-71
2023/09/29 10:14:42;;;;;;;2.50;2.25;;;21.40;66.90;;;;;;6261891;28;20024;-71
2023/09/29 10:17:43;;;;;;;2.40;2.05;;;21.40;66.90;;;;;;6266676;28;20531;-71
2023/09/29 10:20:48;;;;;;;3.33;2.08;;;21.40;67.00;;;;;;6266874;28;20372;-71
2023/09/29 10:23:50;;;;;;;;;;;21.40;67.00;;;;;;6268940;28;20032;-71
2023/09/29 10:26:51;;;;;;;2.28;2.00;;;21.40;66.90;;;;;;6269823;28;20008;-72
2023/09/29 10:30:16;;;;;;;2.92;2.25;;;21.40;66.90;;;;;;6259236;28;20488;-71
2023/09/29 10:33:17;;;;;;;2.60;2.17;;;21.40;67.00;;;;;;6264397;28;20617;-70
2023/09/29 10:36:19;;;;;;;2.00;1.80;;;21.40;67.00;;;;;;6270280;28;20035;-71
2023/09/29 10:39:27;;;;;;;2.80;2.00;;;21.40;67.00;;;;;;6273042;28;20133;-71
2023/09/29 10:42:33;;;;;;;2.20;1.67;;;21.40;67.00;;;;;;6273799;28;20025;-72
2023/09/29 10:45:39;;;;;;;2.50;2.10;;;21.40;67.00;;;;;;6265203;28;20025;-71
2023/09/29 10:48:47;;;;;;;2.40;2.20;;;21.40;67.00;;;;;;6264826;28;20025;-71
2023/09/29 10:51:47;;;;;;;2.78;2.05;;;21.40;67.00;;;;;;6266241;28;20021;-71
2023/09/29 10:54:55;;;;;;;2.55;1.90;;;21.40;67.00;;;;;;6274010;28;20029;-71
2023/09/29 10:57:58;;;;;;;2.17;1.90;;;21.40;67.00;;;;;;6264907;28;20527;-71
2023/09/29 11:00:59;;;;;;;2.33;1.80;;;21.40;67.20;;;;;;6274293;28;20492;-71
2023/09/29 11:04:07;;;;;;;2.33;1.92;;;21.40;67.00;;;;;;6259163;28;20033;-71
2023/09/29 11:07:08;;;;;;;2.08;1.77;;;21.40;67.00;;;;;;6271129;28;20032;-71
2023/09/29 11:10:13;;;;;;;2.40;2.00;;;21.40;67.00;;;;;;6251919;28;20022;-71
2023/09/29 11:13:17;;;;;;;2.38;1.80;;;21.40;67.90;;;;;;6265107;28;20051;-71
2023/09/29 11:16:17;;;;;;;2.50;1.73;;;21.40;67.00;;;;;;6274102;28;20059;-70
2023/09/29 11:19:18;;;;;;;2.10;1.90;;;21.40;67.00;;;;;;6273601;28;20033;-71
2023/09/29 11:22:20;;;;;;;2.40;1.85;;;21.40;67.00;;;;;;6264633;28;20130;-71
2023/09/29 11:25:21;;;;;;;2.97;1.90;;;21.40;67.00;;;;;;6261040;28;20056;-71
2023/09/29 11:28:22;;;;;;;2.65;1.80;;;21.40;67.00;;;;;;6268700;28;20025;-70
2023/09/29 11:31:22;;;;;;;2.47;2.03;;;21.40;67.00;;;;;;6263835;28;20020;-71
2023/09/29 11:34:23;;;;;;;2.20;2.00;;;21.40;67.00;;;;;;6272296;28;20031;-72
2023/09/29 11:37:24;;;;;;;2.15;1.70;;;21.40;67.00;;;;;;6264984;28;20032;-72
2023/09/29 11:40:26;;;;;;;2.17;1.80;;;21.40;67.00;;;;;;6262881;28;20091;-72
2023/09/29 11:43:27;;;;;;;1.88;1.67;;;21.40;67.00;;;;;;6267939;28;20442;-71
2023/09/29 11:46:28;;;;;;;2.10;1.90;;;21.40;67.00;;;;;;6274390;28;20078;-73
2023/09/29 11:49:29;;;;;;;2.13;1.92;;;21.40;67.10;;;;;;6264627;28;20025;-72
2023/09/29 11:52:30;;;;;;;2.00;1.70;;;21.40;67.20;;;;;;6250810;28;20041;-72
2023/09/29 11:55:31;;;;;;;2.45;2.03;;;21.40;67.10;;;;;;6263065;28;20025;-72
2023/09/29 11:58:31;;;;;;;2.50;2.05;;;21.40;67.10;;;;;;6257580;28;20025;-71
2023/09/29 12:01:32;;;;;;;2.00;1.80;;;21.40;67.20;;;;;;6259984;28;20028;-71
2023/09/29 12:04:33;;;;;;;1.67;1.58;;;21.40;67.00;;;;;;6267292;28;20441;-70
2023/09/29 12:07:35;;;;;;;1.70;1.60;;;21.40;67.00;;;;;;6251400;28;20556;-71
2023/09/29 12:10:36;;;;;;;1.92;1.60;;;21.40;67.00;;;;;;6263230;28;20017;-71
2023/09/29 12:13:39;;;;;;;1.92;1.73;;;21.40;67.00;;;;;;6252629;28;20040;-72
2023/09/29 12:16:40;;;;;;;2.00;1.80;;;21.40;67.10;;;;;;6269538;28;20025;-70
2023/09/29 12:19:40;;;;;;;2.00;1.80;;;21.40;67.20;;;;;;6255384;28;20736;-70
2023/09/29 12:22:45;;;;;;;1.83;1.70;;;21.40;67.20;;;;;;6268596;28;20025;-70
2023/09/29 12:25:47;;;;;;;1.88;1.65;;;21.40;67.10;;;;;;6253928;28;20033;-70
2023/09/29 12:28:47;;;;;;;2.00;1.80;;;21.40;67.10;;;;;;6262898;28;20544;-71
2023/09/29 12:31:49;;;;;;;2.00;1.67;;;21.40;67.20;;;;;;6261875;28;20033;-72
2023/09/29 12:34:50;;;;;;;2.60;2.08;;;21.40;67.20;;;;;;6268046;28;20029;-70
2023/09/29 12:37:51;;;;;;;2.25;1.73;;;21.40;67.20;;;;;;6244760;28;20506;-70
2023/09/29 12:40:51;;;;;;;3.05;2.03;;;21.40;67.20;;;;;;6267269;28;20017;-70
2023/09/29 12:43:52;;;;;;;3.85;1.80;;;21.40;67.00;;;;;;6253755;28;20108;-71
2023/09/29 12:46:53;;;;;;;2.58;2.00;;;21.50;66.90;;;;;;6269755;28;20062;-70
2023/09/29 12:49:54;;;;;;;2.50;2.05;;;21.50;66.90;;;;;;6263015;28;20032;-69
2023/09/29 12:52:54;;;;;;;2.30;1.73;;;21.50;66.90;;;;;;6265755;28;20032;-69
2023/09/29 12:55:55;;;;;;;1.73;1.58;;;21.60;67.10;;;;;;6269669;28;20045;-68
2023/09/29 12:58:56;;;;;;;2.10;1.90;;;21.60;67.10;;;;;;6274896;28;20025;-68
2023/09/29 13:01:57;;;;;;;1.55;1.42;;;21.60;67.10;;;;;;6261008;28;21211;-68
2023/09/29 13:04:58;;;;;;;3.55;1.52;;;21.60;67.10;;;;;;6253689;28;20029;-69
2023/09/29 13:08:03;;;;;;;3.30;2.00;;;21.60;67.10;;;;;;6269045;28;20139;-69
2023/09/29 13:11:04;;;;;;;2.13;1.80;;;21.60;67.20;;;;;;6260966;28;20029;-69
2023/09/29 13:14:06;;;;;;;2.08;1.40;;;21.60;67.30;;;;;;6254545;28;20492;-69
2023/09/29 13:17:07;;;;;;;3.08;1.70;;;21.60;67.30;;;;;;6253111;28;20052;-70
2023/09/29 13:20:10;;;;;;;2.17;1.80;;;21.50;67.30;;;;;;6261343;28;20025;-69
2023/09/29 13:23:10;;;;;;;8.60;1.83;;;21.60;68.00;;;;;;6254897;28;20424;-70
2023/09/29 13:26:11;;;;;;;2.17;1.70;;;21.60;67.50;;;;;;6277928;28;20033;-70
2023/09/29 13:29:14;;;;;;;2.20;1.63;;;21.60;67.30;;;;;;6254946;28;20116;-69
2023/09/29 13:32:15;;;;;;;2.92;1.88;;;21.60;67.40;;;;;;6266538;28;20029;-69
2023/09/29 13:35:16;;;;;;;1.92;1.52;;;21.60;67.50;;;;;;6250600;28;20032;-69
2023/09/29 13:38:17;;;;;;;3.25;1.70;;;21.60;67.50;;;;;;6252614;28;20045;-69
2023/09/29 13:41:19;;;;;;;2.58;1.60;;;21.60;67.60;;;;;;6255712;28;20056;-68
2023/09/29 13:44:19;;;;;;;2.33;1.50;;;21.50;67.40;;;;;;6267051;28;20368;-68
2023/09/29 13:47:20;;;;;;;2.40;1.70;;;21.50;67.50;;;;;;6264617;28;20033;-69
2023/09/29 13:50:21;;;;;;;2.65;1.60;;;21.50;67.50;;;;;;6255765;28;20053;-68
2023/09/29 13:53:22;;;;;;;1.45;1.30;;;21.50;67.50;;;;;;6260050;28;20025;-68
2023/09/29 13:56:25;;;;;;;2.10;1.35;;;21.50;67.40;;;;;;6263543;28;20480;-69
2023/09/29 13:59:26;;;;;;;2.58;1.60;;;21.50;67.40;;;;;;6268700;28;20033;-68
2023/09/29 14:02:27;;;;;;;1.98;1.42;;;21.50;67.40;;;;;;6267968;28;20515;-68
2023/09/29 14:05:29;;;;;;;4.03;1.88;;;21.50;67.50;;;;;;6268151;28;20029;-68
2023/09/29 14:08:33;;;;;;;2.28;1.67;;;21.50;67.40;;;;;;6268125;28;20396;-69
2023/09/29 14:11:34;;;;;;;4.47;1.50;;;21.50;67.40;;;;;;6266700;28;20056;-69
2023/09/29 14:14:35;;;;;;;2.90;1.55;;;21.50;67.40;;;;;;6263237;28;20078;-69
2023/09/29 14:17:36;;;;;;;1.88;1.45;;;21.50;67.40;;;;;;6256547;28;20024;-69
2023/09/29 14:20:37;;;;;;;1.83;1.48;;;21.50;67.30;;;;;;6259030;28;20048;-68
2023/09/29 14:23:38;;;;;;;1.85;1.60;;;21.50;67.40;;;;;;6259323;28;20135;-69
2023/09/29 14:26:39;;;;;;;2.25;1.42;;;21.50;67.40;;;;;;6260544;28;20194;-69
2023/09/29 14:29:39;;;;;;;2.90;1.60;;;21.50;67.40;;;;;;6265237;28;20499;-68
2023/09/29 14:32:40;;;;;;;2.00;1.63;;;21.50;67.40;;;;;;6262693;28;20055;-68
2023/09/29 14:35:41;;;;;;;1.95;1.40;;;21.50;67.40;;;;;;6261376;28;20083;-69
2023/09/29 14:38:42;;;;;;;2.45;1.60;;;21.50;67.40;;;;;;6268680;28;20045;-68
2023/09/29 14:41:44;;;;;;;1.92;1.42;;;21.50;67.40;;;;;;6251809;28;20615;-69
2023/09/29 14:44:45;;;;;;;2.53;1.35;;;21.50;67.30;;;;;;6250539;28;20067;-68
2023/09/29 14:47:46;;;;;;;1.95;1.60;;;21.50;67.30;;;;;;6258013;28;20754;-68
2023/09/29 14:50:46;;;;;;;2.58;1.65;;;21.50;67.30;;;;;;6257892;28;20071;-68
2023/09/29 14:53:48;;;;;;;1.88;1.55;;;21.50;67.30;;;;;;6270760;28;20033;-68
2023/09/29 14:56:49;;;;;;;1.92;1.52;;;21.50;67.30;;;;;;6255594;28;20429;-69
2023/09/29 14:59:50;;;;;;;2.03;1.60;;;21.50;67.30;;;;;;6252633;28;20052;-69
2023/09/29 15:02:50;;;;;;;1.58;1.30;;;21.50;67.30;;;;;;6267057;28;20028;-68
2023/09/29 15:05:51;;;;;;;1.88;1.40;;;21.50;67.30;;;;;;6243213;28;20118;-69
2023/09/29 15:08:52;;;;;;;1.67;1.42;;;21.50;67.30;;;;;;6260390;28;20051;-68
2023/09/29 15:11:53;;;;;;;1.40;1.20;;;21.50;67.30;;;;;;6251689;28;20040;-67
2023/09/29 15:14:54;;;;;;;1.95;1.33;;;21.50;67.30;;;;;;6259507;28;20020;-69
2023/09/29 15:17:55;;;;;;;1.85;1.45;;;21.50;67.30;;;;;;6258816;28;20020;-68
2023/09/29 15:20:55;;;;;;;1.73;1.42;;;21.50;67.30;;;;;;6266858;28;20029;-71
2023/09/29 15:23:58;;;;;;;2.42;1.20;;;21.50;67.30;;;;;;6263497;28;20432;-73
2023/09/29 15:26:59;;;;;;;1.77;1.45;;;21.50;67.30;;;;;;6267870;28;20162;-70
2023/09/29 15:29:59;;;;;;;1.58;1.48;;;21.50;67.30;;;;;;6271378;28;20021;-70
2023/09/29 15:33:00;;;;;;;1.35;1.25;;;21.50;67.30;;;;;;6270823;28;20025;-69
2023/09/29 15:36:01;;;;;;;1.58;1.40;;;21.50;67.30;;;;;;6275903;28;20494;-69
2023/09/29 15:39:03;;;;;;;1.58;1.30;;;21.50;67.30;;;;;;6280177;28;20430;-69
2023/09/29 15:42:04;;;;;;;2.17;1.58;;;21.50;67.30;;;;;;6270475;28;20025;-69
2023/09/29 15:45:05;;;;;;;4.40;1.52;;;21.50;67.30;;;;;;6263583;28;20028;-71
2023/09/29 15:48:07;;;;;;;1.48;1.33;;;21.50;67.40;;;;;;6261997;28;20091;-71